createdAt,value
2018-11-23T00:00:31.475Z,83.42
2018-11-23T00:02:59.269Z,83.54
2018-11-23T00:05:26.512Z,83.16
2018-11-23T00:07:54.444Z,83.05
2018-11-23T00:10:22.927Z,82.84
2018-11-23T00:12:50.229Z,83.22
2018-11-23T00:15:18.691Z,83.72
2018-11-23T00:17:45.978Z,83.71
2018-11-23T00:20:18.510Z,84.02
2018-11-23T00:22:45.839Z,84.34
2018-11-23T00:25:14.373Z,84.70
2018-11-23T00:27:41.787Z,84.67
2018-11-23T00:30:11.794Z,84.26
2018-11-23T00:32:39.226Z,84.32
2018-11-23T00:35:07.806Z,84.51
2018-11-23T00:37:35.099Z,84.64
2018-11-23T00:40:02.392Z,85.23
2018-11-23T00:42:29.584Z,85.27
2018-11-23T00:44:56.810Z,84.81
2018-11-23T00:47:24.169Z,84.90
2018-11-23T00:49:51.385Z,84.56
2018-11-23T00:52:18.633Z,84.22
2018-11-23T00:54:45.828Z,84.20
2018-11-23T00:57:13.086Z,83.83
2018-11-23T00:59:40.339Z,83.69
2018-11-23T01:02:08.172Z,83.94
2018-11-23T01:04:36.269Z,84.42
2018-11-23T01:07:03.930Z,84.69
2018-11-23T01:09:31.155Z,84.39
2018-11-23T01:11:58.399Z,84.28
2018-11-23T01:14:25.774Z,84.95
2018-11-23T01:16:55.314Z,85.62
2018-11-23T01:19:22.641Z,85.48
2018-11-23T01:21:49.996Z,86.30
2018-11-23T01:24:17.171Z,86.59
2018-11-23T01:26:44.440Z,88.05
2018-11-23T01:29:11.711Z,89.33
2018-11-23T01:31:39.326Z,89.44
2018-11-23T01:34:06.732Z,89.30
2018-11-23T01:36:33.990Z,89.00
2018-11-23T01:39:01.213Z,88.85
2018-11-23T01:41:28.574Z,88.81
2018-11-23T01:43:55.836Z,89.01
2018-11-23T01:46:23.019Z,89.03
2018-11-23T01:48:50.276Z,88.85
2018-11-23T01:51:17.514Z,88.89
2018-11-23T01:53:44.764Z,88.87
2018-11-23T01:56:14.788Z,88.80
2018-11-23T01:58:42.041Z,88.73
2018-11-23T02:01:09.321Z,88.62
2018-11-23T02:03:36.592Z,88.98
2018-11-23T02:06:03.811Z,89.03
2018-11-23T02:08:31.086Z,89.87
2018-11-23T02:10:58.290Z,89.34
2018-11-23T02:13:25.518Z,88.67
2018-11-23T02:15:52.808Z,88.01
2018-11-23T02:18:20.102Z,87.71
2018-11-23T02:20:47.270Z,88.41
2018-11-23T02:23:14.508Z,89.38
2018-11-23T02:25:41.823Z,89.04
2018-11-23T02:28:09.105Z,87.94
2018-11-23T02:30:36.293Z,87.14
2018-11-23T02:33:03.776Z,88.23
2018-11-23T02:35:31.019Z,89.16
2018-11-23T02:37:58.270Z,89.40
2018-11-23T02:40:25.671Z,89.30
2018-11-23T02:42:52.930Z,88.03
2018-11-23T02:45:21.626Z,86.88
2018-11-23T02:47:49.053Z,86.30
2018-11-23T02:50:16.308Z,85.93
2018-11-23T02:52:43.937Z,86.04
2018-11-23T03:00:19.870Z,86.37
2018-11-23T03:02:47.103Z,86.52
2018-11-23T03:05:16.140Z,86.43
2018-11-23T03:07:43.609Z,86.76
2018-11-23T03:10:12.189Z,89.47
2018-11-23T03:12:40.466Z,89.11
2018-11-23T03:15:09.203Z,89.58
2018-11-23T03:17:36.490Z,87.45
2018-11-23T03:20:04.610Z,86.65
2018-11-23T03:22:31.814Z,86.78
2018-11-23T03:24:59.071Z,87.22
2018-11-23T03:27:26.491Z,88.51
2018-11-23T03:29:54.395Z,88.78
2018-11-23T03:32:21.637Z,89.75
2018-11-23T03:34:58.037Z,89.75
2018-11-23T03:37:25.600Z,89.87
2018-11-23T03:39:52.921Z,90.54
2018-11-23T03:42:20.113Z,90.81
2018-11-23T03:44:49.633Z,88.74
2018-11-23T03:47:17.627Z,88.09
2018-11-23T03:49:44.917Z,88.78
2018-11-23T03:52:12.149Z,91.35
2018-11-23T03:54:39.325Z,91.75
2018-11-23T03:57:06.649Z,90.80
2018-11-23T03:59:33.931Z,90.12
2018-11-23T04:04:26.195Z,89.53
2018-11-23T04:06:53.457Z,89.70
2018-11-23T04:09:20.847Z,89.17
2018-11-23T04:11:48.077Z,89.29
2018-11-23T04:14:15.336Z,89.63
2018-11-23T04:21:35.174Z,90.27
2018-11-23T04:24:02.414Z,89.02
2018-11-23T04:26:29.771Z,88.68
2018-11-23T04:28:57.038Z,90.64
2018-11-23T04:31:24.257Z,90.58
2018-11-23T04:33:51.584Z,90.94
2018-11-23T04:36:18.839Z,91.59
2018-11-23T04:38:46.144Z,90.22
2018-11-23T04:41:13.430Z,89.89
2018-11-23T04:43:40.655Z,91.76
2018-11-23T04:46:07.951Z,87.62
2018-11-23T04:48:35.225Z,86.80
2018-11-23T04:51:02.668Z,88.00
2018-11-23T04:53:29.921Z,89.69
2018-11-23T04:55:57.233Z,91.35
2018-11-23T04:58:24.496Z,92.08
2018-11-23T05:00:51.727Z,92.70
2018-11-23T05:03:19.068Z,92.81
2018-11-23T05:05:46.283Z,93.29
2018-11-23T05:08:13.567Z,92.91
2018-11-23T05:10:40.722Z,93.51
2018-11-23T05:13:07.952Z,92.15
2018-11-23T05:15:35.202Z,89.33
2018-11-23T05:18:02.468Z,89.80
2018-11-23T05:20:29.739Z,90.87
2018-11-23T05:22:57.010Z,91.18
2018-11-23T05:25:24.336Z,90.97
2018-11-23T05:27:51.554Z,91.12
2018-11-23T05:30:19.971Z,90.75
2018-11-23T05:32:47.238Z,90.37
2018-11-23T05:35:15.477Z,89.13
2018-11-23T05:37:42.790Z,89.24
2018-11-23T05:40:12.832Z,91.68
2018-11-23T05:42:40.128Z,91.95
2018-11-23T05:45:09.447Z,90.65
2018-11-23T05:47:36.761Z,90.13
2018-11-23T05:50:05.705Z,90.06
2018-11-23T05:52:32.999Z,89.61
2018-11-23T05:55:00.219Z,89.31
2018-11-23T05:57:27.533Z,89.77
2018-11-23T05:59:54.774Z,90.43
2018-11-23T06:02:21.979Z,91.00
2018-11-23T06:04:49.189Z,92.10
2018-11-23T06:07:16.457Z,92.33
2018-11-23T06:09:43.718Z,91.92
2018-11-23T06:12:11.042Z,91.02
2018-11-23T06:14:38.301Z,88.98
2018-11-23T06:17:05.525Z,88.75
2018-11-23T06:19:32.882Z,89.13
2018-11-23T06:22:00.171Z,88.88
2018-11-23T06:24:31.993Z,88.38
2018-11-23T06:26:54.740Z,87.53
2018-11-23T06:29:21.984Z,87.72
2018-11-23T06:31:49.263Z,88.78
2018-11-23T06:34:32.537Z,90.35
2018-11-23T06:37:04.561Z,92.16
2018-11-23T06:39:32.801Z,91.82
2018-11-23T06:42:00.069Z,90.38
2018-11-23T06:44:29.257Z,90.48
2018-11-23T06:46:56.556Z,89.55
2018-11-23T06:49:24.323Z,87.70
2018-11-23T06:51:51.653Z,86.94
2018-11-23T06:54:18.839Z,87.38
2018-11-23T06:56:46.123Z,89.78
2018-11-23T06:59:13.397Z,91.74
2018-11-23T07:01:41.118Z,92.57
2018-11-23T07:04:08.394Z,92.73
2018-11-23T07:06:35.660Z,93.08
2018-11-23T07:09:04.218Z,94.64
2018-11-23T07:11:31.430Z,94.41
2018-11-23T07:14:03.928Z,94.27
2018-11-23T07:16:25.923Z,94.04
2018-11-23T07:18:53.277Z,91.35
2018-11-23T07:21:21.564Z,87.27
2018-11-23T07:23:56.973Z,80.90
2018-11-23T07:26:24.305Z,77.01
2018-11-23T07:28:51.555Z,71.34
2018-11-23T07:31:18.792Z,68.59
2018-11-23T07:33:46.064Z,66.06
2018-11-23T07:36:13.407Z,64.47
2018-11-23T07:38:40.689Z,63.13
2018-11-23T07:41:19.335Z,62.56
2018-11-23T07:43:46.542Z,60.97
2018-11-23T07:46:13.828Z,60.17
2018-11-23T07:48:41.080Z,57.40
2018-11-23T07:51:08.432Z,55.36
2018-11-23T07:53:35.654Z,53.86
2018-11-23T07:56:02.906Z,53.55
2018-11-23T07:58:30.112Z,51.87
2018-11-23T08:00:57.383Z,49.84
2018-11-23T08:03:24.683Z,48.78
2018-11-23T08:05:51.973Z,48.72
2018-11-23T08:08:19.290Z,46.61
2018-11-23T08:10:45.971Z,45.64
2018-11-23T08:13:13.243Z,44.17
2018-11-23T08:15:48.370Z,44.59
2018-11-23T08:18:15.655Z,46.60
2018-11-23T08:20:43.252Z,46.96
2018-11-23T08:23:10.479Z,47.53
2018-11-23T08:25:37.766Z,46.41
2018-11-23T08:28:05.108Z,45.55
2018-11-23T08:30:32.337Z,45.33
2018-11-23T08:32:59.592Z,45.25
2018-11-23T08:35:26.859Z,45.32
2018-11-23T08:37:54.092Z,46.05
2018-11-23T08:40:22.698Z,45.71
2018-11-23T08:42:50.873Z,44.42
2018-11-23T08:45:20.600Z,43.25
2018-11-23T08:47:47.823Z,41.43
2018-11-23T08:50:21.452Z,38.40
2018-11-23T08:52:48.998Z,39.20
2018-11-23T08:55:16.941Z,39.68
2018-11-23T08:57:44.166Z,39.62
2018-11-23T09:00:15.198Z,38.54
2018-11-23T09:02:45.097Z,39.47
2018-11-23T09:05:12.394Z,40.69
2018-11-23T09:07:39.697Z,39.71
2018-11-23T09:10:09.249Z,38.66
2018-11-23T09:12:42.122Z,39.02
2018-11-23T09:15:13.878Z,38.98
2018-11-23T09:17:41.692Z,39.05
2018-11-23T09:20:10.044Z,38.89
2018-11-23T09:22:37.350Z,39.04
2018-11-23T09:25:06.213Z,38.61
2018-11-23T09:27:33.495Z,40.11
2018-11-23T09:30:00.786Z,40.64
2018-11-23T09:32:28.048Z,41.74
2018-11-23T09:34:55.292Z,40.57
2018-11-23T09:37:22.470Z,42.99
2018-11-23T09:39:49.773Z,44.02
2018-11-23T09:42:20.815Z,43.38
2018-11-23T09:44:48.764Z,42.77
2018-11-23T09:47:16.156Z,41.68
2018-11-23T09:49:43.546Z,42.10
2018-11-23T09:52:10.854Z,42.98
2018-11-23T09:54:38.112Z,45.55
2018-11-23T09:57:05.984Z,47.10
2018-11-23T09:59:33.247Z,47.44
2018-11-23T10:02:00.862Z,49.18
2018-11-23T10:04:28.150Z,49.28
2018-11-23T10:06:55.323Z,50.56
2018-11-23T10:09:22.681Z,50.56
2018-11-23T10:11:49.926Z,48.67
2018-11-23T10:14:17.165Z,48.17
2018-11-23T10:16:45.986Z,50.69
2018-11-23T10:19:19.142Z,51.37
2018-11-23T10:21:46.364Z,52.09
2018-11-23T10:24:13.605Z,51.58
2018-11-23T10:26:40.768Z,50.85
2018-11-23T10:29:08.126Z,50.83
2018-11-23T10:31:35.470Z,51.23
2018-11-23T10:34:02.743Z,51.38
2018-11-23T10:36:29.988Z,51.57
2018-11-23T10:38:57.171Z,52.00
2018-11-23T10:41:24.403Z,53.20
2018-11-23T10:43:51.599Z,55.43
2018-11-23T10:46:18.860Z,54.59
2018-11-23T10:48:46.171Z,54.75
2018-11-23T10:51:13.507Z,54.32
2018-11-23T10:53:40.765Z,52.08
2018-11-23T10:56:08.039Z,49.77
2018-11-23T10:58:35.272Z,49.52
2018-11-23T11:01:08.228Z,50.43
2018-11-23T11:03:40.060Z,51.80
2018-11-23T11:06:13.263Z,51.64
2018-11-23T11:08:41.003Z,50.68
2018-11-23T11:11:08.798Z,50.24
2018-11-23T11:13:36.055Z,49.19
2018-11-23T11:16:03.281Z,49.48
2018-11-23T11:18:30.554Z,49.64
2018-11-23T11:20:57.835Z,49.07
2018-11-23T11:23:25.143Z,49.60
2018-11-23T11:25:52.518Z,50.26
2018-11-23T11:28:19.787Z,52.02
2018-11-23T11:30:47.026Z,51.70
2018-11-23T11:33:14.224Z,51.94
2018-11-23T11:35:41.552Z,49.87
2018-11-23T11:38:08.800Z,49.06
2018-11-23T11:40:36.042Z,47.48
2018-11-23T11:43:03.305Z,45.84
2018-11-23T11:45:30.484Z,48.54
2018-11-23T11:47:57.705Z,47.98
2018-11-23T11:50:24.956Z,48.89
2018-11-23T11:52:52.145Z,51.42
2018-11-23T11:55:20.085Z,52.38
2018-11-23T11:57:47.779Z,52.02
2018-11-23T12:00:18.262Z,51.56
2018-11-23T12:02:45.723Z,50.17
2018-11-23T12:05:13.379Z,49.75
2018-11-23T12:07:40.701Z,50.39
2018-11-23T12:10:11.429Z,52.28
2018-11-23T12:12:42.355Z,52.20
2018-11-23T12:15:14.527Z,50.70
2018-11-23T12:17:42.101Z,52.02
2018-11-23T12:20:14.604Z,53.49
2018-11-23T12:22:42.026Z,52.05
2018-11-23T12:25:09.522Z,54.27
2018-11-23T12:27:36.790Z,56.23
2018-11-23T12:30:06.547Z,54.84
2018-11-23T12:32:33.794Z,55.50
2018-11-23T12:35:01.127Z,55.47
2018-11-23T12:37:28.446Z,54.62
2018-11-23T12:39:55.726Z,54.00
2018-11-23T12:42:23.470Z,53.27
2018-11-23T12:44:50.853Z,51.54
2018-11-23T12:47:18.133Z,50.23
2018-11-23T12:49:45.351Z,51.56
2018-11-23T12:52:12.582Z,51.63
2018-11-23T12:54:39.861Z,51.68
2018-11-23T12:57:07.074Z,53.19
2018-11-23T12:59:34.441Z,52.87
2018-11-23T13:02:01.985Z,54.49
2018-11-23T13:04:29.347Z,54.59
2018-11-23T13:06:57.056Z,54.88
2018-11-23T13:09:24.300Z,54.41
2018-11-23T13:11:51.594Z,54.10
2018-11-23T13:14:18.894Z,55.19
2018-11-23T13:16:47.353Z,55.05
2018-11-23T13:19:14.641Z,55.47
2018-11-23T13:21:41.895Z,55.21
2018-11-23T13:24:09.169Z,56.05
2018-11-23T13:26:36.442Z,56.12
2018-11-23T13:29:15.657Z,56.29
2018-11-23T13:31:31.222Z,57.10
2018-11-23T13:33:58.492Z,56.96
2018-11-23T13:36:25.714Z,57.97
2018-11-23T13:38:53.430Z,57.71
2018-11-23T13:41:20.598Z,58.55
2018-11-23T13:43:51.248Z,58.76
2018-11-23T13:46:18.488Z,59.25
2018-11-23T13:48:45.746Z,59.63
2018-11-23T13:51:12.970Z,59.94
2018-11-23T13:53:40.284Z,60.40
2018-11-23T13:56:08.294Z,60.48
2018-11-23T13:58:35.568Z,60.96
2018-11-23T14:01:02.835Z,60.27
2018-11-23T14:03:30.131Z,60.55
2018-11-23T14:05:57.351Z,61.67
2018-11-23T14:08:24.631Z,61.60
2018-11-23T14:10:51.832Z,61.87
2018-11-23T14:13:19.109Z,62.00
2018-11-23T14:15:46.367Z,61.71
2018-11-23T14:18:13.628Z,61.40
2018-11-23T14:20:40.823Z,61.64
2018-11-23T14:23:08.116Z,63.02
2018-11-23T14:25:35.381Z,62.50
2018-11-23T14:28:02.742Z,62.78
2018-11-23T14:30:31.411Z,64.13
2018-11-23T14:32:59.182Z,63.99
2018-11-23T14:35:28.696Z,63.84
2018-11-23T14:37:56.606Z,64.12
2018-11-23T14:40:23.989Z,64.26
2018-11-23T14:42:51.498Z,64.52
2018-11-23T14:45:21.974Z,65.20
2018-11-23T14:47:49.988Z,65.21
2018-11-23T14:50:19.207Z,65.30
2018-11-23T14:52:47.744Z,65.28
2018-11-23T14:55:15.305Z,65.64
2018-11-23T14:57:43.121Z,65.84
2018-11-23T15:00:33.488Z,66.73
2018-11-23T15:03:04.439Z,66.66
2018-11-23T15:05:31.787Z,66.36
2018-11-23T15:08:02.660Z,66.99
2018-11-23T15:10:31.120Z,66.41
2018-11-23T15:12:59.573Z,67.34
2018-11-23T15:15:28.232Z,67.29
2018-11-23T15:17:56.156Z,68.21
2018-11-23T15:20:25.163Z,67.89
2018-11-23T15:22:56.141Z,67.98
2018-11-23T15:25:23.420Z,69.33
2018-11-23T15:27:57.552Z,69.78
2018-11-23T15:30:28.240Z,69.82
2018-11-23T15:32:55.915Z,69.87
2018-11-23T15:35:23.199Z,69.72
2018-11-23T15:37:50.599Z,69.84
2018-11-23T15:40:20.432Z,70.21
2018-11-23T15:42:48.382Z,70.39
2018-11-23T15:45:19.965Z,70.14
2018-11-23T15:47:48.062Z,71.20
2018-11-23T15:50:17.821Z,71.24
2018-11-23T15:52:45.470Z,70.60
2018-11-23T15:55:15.520Z,71.10
2018-11-23T15:57:43.467Z,70.67
2018-11-23T16:00:13.935Z,71.68
2018-11-23T16:02:41.681Z,71.69
2018-11-23T16:05:09.883Z,71.82
2018-11-23T16:07:42.166Z,71.35
2018-11-23T16:10:18.753Z,71.15
2018-11-23T16:12:47.360Z,71.82
2018-11-23T16:15:14.650Z,71.65
2018-11-23T16:17:41.899Z,71.70
2018-11-23T16:20:12.861Z,71.86
2018-11-23T16:22:44.496Z,72.37
2018-11-23T16:25:16.882Z,72.69
2018-11-23T16:27:45.399Z,72.99
2018-11-23T16:30:17.567Z,72.97
2018-11-23T16:32:47.374Z,72.83
2018-11-23T16:35:16.353Z,73.08
2018-11-23T16:37:43.708Z,73.61
2018-11-23T16:40:13.058Z,73.84
2018-11-23T16:42:40.345Z,73.21
2018-11-23T16:45:11.935Z,73.18
2018-11-23T16:47:39.421Z,73.46
2018-11-23T16:50:12.541Z,73.40
2018-11-23T16:52:40.531Z,73.74
2018-11-23T16:55:09.165Z,73.69
2018-11-23T16:57:36.481Z,73.70
2018-11-23T17:00:04.837Z,73.84
2018-11-23T17:02:32.082Z,73.95
2018-11-23T17:04:59.260Z,73.95
2018-11-23T17:07:26.501Z,74.62
2018-11-23T17:09:53.715Z,73.79
2018-11-23T17:12:21.118Z,74.47
2018-11-23T17:14:48.394Z,74.28
2018-11-23T17:17:15.673Z,73.99
2018-11-23T17:19:42.940Z,73.59
2018-11-23T17:22:10.118Z,73.77
2018-11-23T17:24:37.525Z,74.68
2018-11-23T17:27:04.880Z,74.88
2018-11-23T17:29:32.273Z,75.60
2018-11-23T17:31:59.535Z,75.91
2018-11-23T17:34:26.845Z,75.95
2018-11-23T17:36:54.092Z,75.73
2018-11-23T17:39:21.341Z,75.69
2018-11-23T17:41:48.566Z,75.30
2018-11-23T17:44:15.786Z,75.40
2018-11-23T17:46:43.040Z,75.35
2018-11-23T17:49:12.234Z,75.82
2018-11-23T17:51:39.524Z,76.05
2018-11-23T17:54:06.756Z,77.00
2018-11-23T17:56:34.000Z,76.69
2018-11-23T17:59:01.248Z,76.47
2018-11-23T18:01:28.472Z,77.19
2018-11-23T18:03:55.775Z,77.54
2018-11-23T18:06:23.066Z,77.86
2018-11-23T18:08:50.353Z,77.77
2018-11-23T18:11:17.736Z,77.69
2018-11-23T18:13:45.389Z,77.21
2018-11-23T18:16:12.582Z,77.37
2018-11-23T18:18:39.837Z,76.99
2018-11-23T18:21:07.195Z,77.56
2018-11-23T18:23:34.406Z,77.30
2018-11-23T18:26:01.597Z,77.35
2018-11-23T18:28:28.862Z,77.91
2018-11-23T18:30:56.119Z,77.39
2018-11-23T18:33:23.379Z,77.60
2018-11-23T18:35:50.633Z,77.60
2018-11-23T18:38:17.838Z,77.48
2018-11-23T18:40:45.036Z,77.73
2018-11-23T18:43:12.311Z,78.40
2018-11-23T18:45:39.579Z,77.33
2018-11-23T18:48:06.841Z,78.22
2018-11-23T18:50:34.129Z,77.63
2018-11-23T18:53:01.356Z,77.65
2018-11-23T18:55:28.606Z,77.99
2018-11-23T18:57:55.908Z,78.35
2018-11-23T19:00:24.868Z,78.18
2018-11-23T19:02:52.095Z,78.09
2018-11-23T19:05:20.755Z,77.99
2018-11-23T19:07:47.982Z,78.41
2018-11-23T19:10:15.261Z,78.32
2018-11-23T19:12:42.500Z,78.66
2018-11-23T19:15:12.071Z,78.67
2018-11-23T19:17:39.313Z,79.59
2018-11-23T19:20:09.692Z,79.00
2018-11-23T19:22:36.890Z,78.98
2018-11-23T19:25:04.492Z,79.44
2018-11-23T19:27:31.769Z,79.77
2018-11-23T19:29:59.036Z,80.42
2018-11-23T19:32:26.280Z,81.07
2018-11-23T19:34:53.527Z,82.03
2018-11-23T19:37:20.744Z,81.94
2018-11-23T19:39:47.977Z,82.11
2018-11-23T19:42:15.234Z,82.96
2018-11-23T19:44:42.485Z,82.07
2018-11-23T19:47:09.791Z,82.41
2018-11-23T19:49:37.032Z,83.80
2018-11-23T19:52:04.432Z,84.18
2018-11-23T19:54:35.630Z,83.55
2018-11-23T19:57:02.931Z,82.92
2018-11-23T19:59:31.916Z,82.60
2018-11-23T20:02:02.017Z,82.81
2018-11-23T20:04:29.270Z,82.58
2018-11-23T20:06:59.702Z,82.66
2018-11-23T20:09:26.949Z,82.94
2018-11-23T20:11:54.220Z,82.53
2018-11-23T20:14:21.501Z,82.92
2018-11-23T20:16:48.733Z,82.47
2018-11-23T20:19:16.017Z,82.64
2018-11-23T20:21:43.336Z,83.30
2018-11-23T20:24:10.556Z,82.37
2018-11-23T20:26:37.828Z,83.15
2018-11-23T20:29:05.273Z,83.05
2018-11-23T20:31:32.552Z,83.04
2018-11-23T20:33:59.801Z,84.28
2018-11-23T20:36:27.109Z,84.28
2018-11-23T20:38:54.427Z,84.08
2018-11-23T20:41:21.720Z,85.00
2018-11-23T20:43:49.080Z,85.08
2018-11-23T20:46:16.374Z,85.14
2018-11-23T20:48:43.638Z,84.37
2018-11-23T20:51:11.074Z,84.75
2018-11-23T20:53:38.379Z,84.72
2018-11-23T20:56:05.799Z,84.50
2018-11-23T20:58:47.435Z,84.04
2018-11-23T21:01:15.147Z,83.86
2018-11-23T21:03:42.487Z,84.49
2018-11-23T21:06:09.759Z,84.58
2018-11-23T21:08:37.130Z,84.57
2018-11-23T21:11:04.867Z,85.12
2018-11-23T21:13:32.127Z,84.73
2018-11-23T21:15:59.498Z,85.29
2018-11-23T21:18:26.739Z,86.12
2018-11-23T21:20:53.967Z,85.55
2018-11-23T21:23:21.291Z,85.43
2018-11-23T21:25:48.554Z,85.77
2018-11-23T21:28:15.825Z,85.72
2018-11-23T21:30:43.130Z,86.23
2018-11-23T21:33:10.423Z,86.95
2018-11-23T21:35:37.765Z,86.23
2018-11-23T21:38:05.230Z,85.79
2018-11-23T21:40:32.511Z,85.80
2018-11-23T21:42:59.793Z,86.11
2018-11-23T21:45:27.125Z,86.57
2018-11-23T21:47:54.411Z,87.44
2018-11-23T21:50:25.601Z,87.95
2018-11-23T21:52:49.127Z,87.85
2018-11-23T21:55:24.069Z,86.58
2018-11-23T21:57:52.411Z,86.25
2018-11-23T22:00:19.757Z,85.53
2018-11-23T22:02:47.007Z,85.05
2018-11-23T22:05:14.317Z,85.31
2018-11-23T22:07:41.681Z,86.93
2018-11-23T22:10:14.020Z,86.65
2018-11-23T22:12:41.318Z,87.55
2018-11-23T22:15:11.828Z,86.88
2018-11-23T22:17:39.066Z,87.00
2018-11-23T22:20:12.435Z,87.03
2018-11-23T22:22:39.885Z,85.99
2018-11-23T22:25:09.399Z,85.95
2018-11-23T22:27:36.624Z,86.68
2018-11-23T22:30:09.526Z,86.64
2018-11-23T22:32:36.734Z,86.18
2018-11-23T22:35:04.218Z,85.94
2018-11-23T22:37:34.890Z,86.21
2018-11-23T22:40:11.059Z,87.33
2018-11-23T22:42:38.525Z,89.21
2018-11-23T22:45:07.385Z,90.65
2018-11-23T22:47:34.753Z,90.69
2018-11-23T22:50:02.121Z,91.07
2018-11-23T22:52:29.511Z,89.88
2018-11-23T22:54:56.801Z,89.67
2018-11-23T22:57:24.084Z,89.14
2018-11-23T22:59:51.383Z,89.39
2018-11-23T23:02:18.601Z,89.27
2018-11-23T23:04:45.788Z,89.28
2018-11-23T23:07:13.001Z,88.35
2018-11-23T23:09:40.278Z,88.57
2018-11-23T23:12:07.698Z,87.76
2018-11-23T23:14:35.064Z,88.16
2018-11-23T23:17:02.404Z,87.44
2018-11-23T23:19:29.829Z,86.96
2018-11-23T23:21:57.159Z,87.14
2018-11-23T23:24:24.476Z,86.84
2018-11-23T23:26:51.878Z,86.31
2018-11-23T23:29:19.332Z,86.05
2018-11-23T23:31:46.888Z,86.10
2018-11-23T23:34:14.178Z,86.28
2018-11-23T23:36:41.600Z,86.33
2018-11-23T23:39:09.029Z,86.68
2018-11-23T23:41:39.528Z,85.98
2018-11-23T23:44:07.450Z,86.52
2018-11-23T23:46:34.828Z,86.23
2018-11-23T23:49:02.202Z,87.03
2018-11-23T23:51:29.504Z,85.86
2018-11-23T23:53:56.802Z,86.21
2018-11-23T23:56:24.065Z,85.91
2018-11-23T23:58:51.449Z,85.54
